Time;durP1;ratioP1;P1;durP2;ratioP2;P2;SDS_P1;SDS_P2;PMS_P1;PMS_P2;Temp;Humidity;BMP_temperature;BMP_pressure;BME280_temperature;BME280_humidity;BME280_pressure;Samples;Min_cycle;Max_cycle;Signal;HPM_P1;HPM_P2
2023/12/21 00:00:28;;;;;;;1.90;0.67;;;;;;;7.73;69.42;99856.19;5038412;27;98230;-51
2023/12/21 00:02:53;;;;;;;0.50;0.47;;;;;;;7.73;69.38;99845.19;5039362;27;96895;-50
2023/12/21 00:05:18;;;;;;;2.80;0.70;;;;;;;7.75;69.40;99845.41;5040726;27;111506;-50
2023/12/21 00:07:44;;;;;;;0.70;0.60;;;;;;;7.78;69.51;99849.13;5039222;27;97110;-51
2023/12/21 00:10:09;;;;;;;0.83;0.70;;;;;;;7.80;69.51;99852.13;5041146;27;105526;-50
2023/12/21 00:12:34;;;;;;;1.00;0.50;;;;;;;7.81;69.42;99839.84;5039210;27;110570;-50
2023/12/21 00:15:00;;;;;;;0.83;0.60;;;;;;;7.82;69.55;99844.09;5041515;27;97243;-50
2023/12/21 00:17:25;;;;;;;0.60;0.60;;;;;;;7.85;69.50;99840.31;5040037;27;99182;-50
2023/12/21 00:19:50;;;;;;;1.00;0.90;;;;;;;7.88;69.50;99844.75;5039480;27;99815;-50
2023/12/21 00:22:16;;;;;;;0.70;0.60;;;;;;;7.89;69.49;99840.75;5039624;27;97072;-51
2023/12/21 00:24:41;;;;;;;0.70;0.70;;;;;;;7.91;69.40;99838.22;5039183;27;97255;-50
2023/12/21 00:27:06;;;;;;;0.80;0.80;;;;;;;7.92;69.43;99845.25;5039916;27;96769;-51
2023/12/21 00:29:31;;;;;;;0.70;0.63;;;;;;;7.95;69.44;99857.22;5039811;27;107471;-51
2023/12/21 00:31:57;;;;;;;1.63;0.77;;;;;;;7.98;69.47;99853.44;5037978;27;104524;-51
2023/12/21 00:34:22;;;;;;;1.07;0.97;;;;;;;7.99;69.46;99841.88;5040258;27;96833;-50
2023/12/21 00:36:47;;;;;;;1.00;1.00;;;;;;;8.00;69.66;99834.38;5039245;27;97519;-50
2023/12/21 00:39:13;;;;;;;0.80;0.60;;;;;;;8.01;69.60;99833.13;5040695;27;97277;-50
2023/12/21 00:41:38;;;;;;;1.00;1.00;;;;;;;8.02;69.65;99832.59;5038905;27;109857;-51
2023/12/21 00:44:03;;;;;;;0.90;0.90;;;;;;;8.05;69.55;99815.06;5040417;27;106415;-50
2023/12/21 00:46:28;;;;;;;1.20;1.10;;;;;;;8.08;69.53;99808.50;5039810;27;97413;-50
2023/12/21 00:48:54;;;;;;;1.10;1.00;;;;;;;8.13;69.43;99812.44;5038080;27;104912;-51
2023/12/21 00:51:19;;;;;;;1.17;0.93;;;;;;;8.13;69.47;99804.94;5038529;27;102258;-51
2023/12/21 00:53:44;;;;;;;1.43;1.33;;;;;;;8.15;69.58;99802.41;5039131;27;105437;-50
2023/12/21 00:56:10;;;;;;;1.53;1.43;;;;;;;8.17;69.51;99793.63;5040501;27;101587;-51
2023/12/21 00:58:35;;;;;;;1.23;1.23;;;;;;;8.18;69.48;99795.88;5038927;27;97074;-51
2023/12/21 01:01:00;;;;;;;1.40;1.30;;;;;;;8.20;69.45;99801.63;5040521;27;97443;-50
2023/12/21 01:03:26;;;;;;;0.97;0.97;;;;;;;8.21;69.48;99797.59;5039690;27;98365;-50
2023/12/21 01:05:51;;;;;;;1.30;1.10;;;;;;;8.22;69.50;99801.84;5038451;27;97039;-50
2023/12/21 01:08:17;;;;;;;1.27;1.13;;;;;;;8.23;69.50;99797.81;5038517;27;97297;-50
2023/12/21 01:10:42;;;;;;;1.40;1.30;;;;;;;8.25;69.59;99789.75;5037869;27;96951;-50
2023/12/21 01:13:07;;;;;;;2.67;1.20;;;;;;;8.27;69.79;99787.22;5036878;27;97288;-51
2023/12/21 01:15:33;;;;;;;1.20;1.10;;;;;;;8.29;69.43;99790.22;5040815;27;97900;-50
2023/12/21 01:17:58;;;;;;;1.13;1.13;;;;;;;8.28;69.60;99785.97;5037488;27;97089;-51
2023/12/21 01:20:23;;;;;;;1.30;1.20;;;;;;;8.32;69.66;99791.19;5040230;27;97365;-51
2023/12/21 01:22:49;;;;;;;1.07;1.07;;;;;;;8.32;69.48;99788.41;5039123;27;97106;-51
2023/12/21 01:25:14;;;;;;;1.37;1.27;;;;;;;8.35;69.55;99784.63;5038225;27;97321;-50
2023/12/21 01:27:40;;;;;;;1.27;1.27;;;;;;;8.34;69.47;99781.13;5039985;27;103325;-50
2023/12/21 01:30:06;;;;;;;1.60;1.50;;;;;;;8.31;69.56;99776.69;5039513;27;97026;-51
2023/12/21 01:32:31;;;;;;;1.20;1.20;;;;;;;8.37;69.70;99774.56;5039482;27;97053;-50
2023/12/21 01:34:56;;;;;;;1.43;1.40;;;;;;;8.37;69.50;99763.56;5038879;27;97222;-51
2023/12/21 01:37:22;;;;;;;1.57;1.47;;;;;;;8.39;69.57;99766.53;5037494;27;97391;-51
2023/12/21 01:39:47;;;;;;;1.57;1.50;;;;;;;8.41;69.69;99752.22;5039609;27;97217;-51
2023/12/21 01:42:12;;;;;;;1.20;1.20;;;;;;;8.42;69.57;99746.22;5039961;27;97264;-51
2023/12/21 01:44:37;;;;;;;2.40;1.50;;;;;;;8.43;69.62;99749.69;5038994;27;97318;-51
2023/12/21 01:47:03;;;;;;;1.60;1.50;;;;;;;8.42;69.42;99748.97;5039486;27;106713;-51
2023/12/21 01:49:29;;;;;;;1.83;1.73;;;;;;;8.42;69.53;99737.19;5040265;27;96827;-50
2023/12/21 01:51:55;;;;;;;2.60;1.53;;;;;;;8.43;69.48;99731.13;5037018;27;97446;-51
2023/12/21 01:54:21;;;;;;;1.50;1.37;;;;;;;8.43;69.56;99722.13;5039017;27;97118;-51
2023/12/21 01:56:46;;;;;;;1.37;1.10;;;;;;;8.45;69.77;99725.09;5038803;27;96786;-50
2023/12/21 01:59:12;;;;;;;1.60;1.37;;;;;;;8.45;69.59;99709.31;5038453;27;105605;-50
2023/12/21 02:01:38;;;;;;;1.57;1.47;;;;;;;8.47;69.57;99706.78;5038950;27;97193;-50
2023/12/21 02:04:04;;;;;;;1.53;1.30;;;;;;;8.48;69.59;99704.75;5037833;27;96858;-51
2023/12/21 02:06:29;;;;;;;2.50;1.53;;;;;;;8.49;69.58;99701.47;5041349;27;97040;-50
2023/12/21 02:08:54;;;;;;;1.07;1.07;;;;;;;8.50;69.76;99700.22;5038861;27;96952;-51
2023/12/21 02:11:20;;;;;;;1.73;1.57;;;;;;;8.50;69.45;99699.47;5039445;27;96933;-51
2023/12/21 02:13:45;;;;;;;3.07;1.70;;;;;;;8.52;69.59;99686.66;5038955;27;98573;-51
2023/12/21 02:16:23;;;;;;;1.43;1.37;;;;;;;8.54;69.73;99684.13;5040170;27;106574;-51
2023/12/21 02:18:49;;;;;;;1.30;1.20;;;;;;;8.55;69.70;99684.88;5037902;27;97120;-51
2023/12/21 02:21:15;;;;;;;1.90;1.50;;;;;;;8.54;69.57;99680.59;5039921;27;97831;-51
2023/12/21 02:23:42;;;;;;;1.73;1.60;;;;;;;8.53;69.65;99687.41;5037210;27;96998;-51
2023/12/21 02:26:08;;;;;;;1.80;1.70;;;;;;;8.55;69.72;99673.84;5039257;27;97323;-51
2023/12/21 02:28:34;;;;;;;2.20;2.00;;;;;;;8.59;69.52;99665.25;5037792;27;98605;-51
2023/12/21 02:30:59;;;;;;;2.63;2.00;;;;;;;8.57;69.54;99662.28;5039003;27;100224;-51
2023/12/21 02:33:25;;;;;;;1.90;1.80;;;;;;;8.57;69.74;99649.25;5038485;27;97345;-50
2023/12/21 02:35:50;;;;;;;7.20;2.13;;;;;;;8.61;69.54;99643.41;5036280;27;97154;-51
2023/12/21 02:38:15;;;;;;;1.90;1.80;;;;;;;8.59;69.60;99648.72;5038895;27;97122;-51
2023/12/21 02:40:40;;;;;;;1.90;1.80;;;;;;;8.60;69.66;99656.44;5040217;27;97085;-51
2023/12/21 02:43:06;;;;;;;2.17;1.60;;;;;;;8.61;69.81;99657.94;5037027;27;97055;-51
2023/12/21 02:45:31;;;;;;;1.67;1.60;;;;;;;8.60;69.65;99648.16;5038718;27;96942;-50
2023/12/21 02:47:57;;;;;;;10.50;1.87;;;;;;;8.60;69.75;99631.63;5036448;27;107851;-50
2023/12/21 02:50:22;;;;;;;2.60;1.87;;;;;;;8.59;69.77;99624.66;5039301;27;96916;-51
2023/12/21 02:52:47;;;;;;;1.87;1.77;;;;;;;8.57;69.84;99616.16;5038162;27;102564;-51
2023/12/21 02:55:13;;;;;;;1.90;1.80;;;;;;;8.56;69.95;99630.47;5038820;27;108411;-51
2023/12/21 02:57:38;;;;;;;3.27;2.10;;;;;;;8.56;69.88;99622.22;5040518;27;97860;-51
2023/12/21 03:00:04;;;;;;;2.43;1.93;;;;;;;8.56;69.80;99624.97;5038254;27;97234;-51
2023/12/21 03:02:30;;;;;;;1.60;1.50;;;;;;;8.57;69.96;99640.22;5041653;27;97332;-51
2023/12/21 03:04:55;;;;;;;1.60;1.50;;;;;;;8.57;70.02;99629.94;5042123;27;96829;-51
2023/12/21 03:07:20;;;;;;;2.00;1.90;;;;;;;8.58;69.92;99633.44;5042314;27;97586;-51
2023/12/21 03:09:45;;;;;;;2.47;1.57;;;;;;;8.58;69.95;99622.41;5042010;27;97083;-51
2023/12/21 03:12:11;;;;;;;2.27;2.07;;;;;;;8.59;69.81;99623.91;5042046;27;97116;-50
2023/12/21 03:14:36;;;;;;;6.27;2.13;;;;;;;8.59;70.00;99610.09;5042522;27;97405;-50
2023/12/21 03:17:01;;;;;;;4.13;1.90;;;;;;;8.61;69.95;99610.31;5042082;27;99664;-50
2023/12/21 03:19:27;;;;;;;1.70;1.60;;;;;;;8.61;70.05;99588.28;5041677;27;97199;-51
2023/12/21 03:21:52;;;;;;;2.17;1.97;;;;;;;8.61;70.15;99577.25;5041888;27;97198;-50
2023/12/21 03:24:17;;;;;;;1.87;1.77;;;;;;;8.61;69.83;99580.00;5040285;27;98928;-51
2023/12/21 03:26:45;;;;;;;3.47;2.40;;;;;;;8.58;70.24;99578.31;5019206;27;97073;-51
2023/12/21 03:29:11;;;;;;;1.87;1.77;;;;;;;8.60;70.03;99568.22;5040851;27;98645;-51
2023/12/21 03:31:36;;;;;;;2.40;2.20;;;;;;;8.61;70.00;99552.44;5041202;27;96641;-51
2023/12/21 03:34:01;;;;;;;2.73;2.43;;;;;;;8.62;69.95;99546.41;5041173;27;97190;-50
2023/12/21 03:36:27;;;;;;;3.30;1.90;;;;;;;8.62;70.17;99538.13;5040898;27;97196;-50
2023/12/21 03:38:52;;;;;;;4.73;2.20;;;;;;;8.63;70.01;99536.09;5038889;27;98207;-51
2023/12/21 03:41:18;;;;;;;3.33;2.30;;;;;;;8.63;70.10;99527.84;5041746;27;98216;-50
2023/12/21 03:43:43;;;;;;;2.27;2.07;;;;;;;8.62;69.97;99523.59;5040516;27;97364;-51
2023/12/21 03:46:09;;;;;;;2.10;1.90;;;;;;;8.61;69.96;99530.38;5036980;27;111686;-51
2023/12/21 03:48:34;;;;;;;2.40;2.20;;;;;;;8.63;70.22;99525.06;5038243;27;98084;-51
2023/12/21 03:51:00;;;;;;;2.93;1.90;;;;;;;8.60;70.18;99509.59;5039242;27;100806;-50
2023/12/21 03:53:25;;;;;;;2.10;2.00;;;;;;;8.64;70.20;99513.53;5039314;27;102008;-51
2023/12/21 03:55:50;;;;;;;1.90;1.70;;;;;;;8.66;70.02;99504.72;5038192;27;110054;-51
2023/12/21 03:58:16;;;;;;;2.30;2.10;;;;;;;8.65;69.87;99489.44;5037388;27;97607;-50
2023/12/21 04:00:41;;;;;;;1.90;1.80;;;;;;;8.65;70.00;99495.72;5038838;27;96699;-50
2023/12/21 04:03:06;;;;;;;3.50;1.90;;;;;;;8.66;70.07;99496.47;5037197;27;97203;-51
2023/12/21 04:05:31;;;;;;;3.73;1.93;;;;;;;8.66;69.93;99486.19;5039763;27;109911;-51
2023/12/21 04:07:57;;;;;;;1.77;1.67;;;;;;;8.66;70.00;99485.44;5037224;27;97980;-50
2023/12/21 04:10:22;;;;;;;1.50;1.40;;;;;;;8.64;70.16;99488.72;5038594;27;97427;-50
2023/12/21 04:12:48;;;;;;;2.03;1.73;;;;;;;8.65;70.16;99484.69;5036375;27;97468;-50
2023/12/21 04:15:13;;;;;;;1.17;1.07;;;;;;;8.64;70.03;99483.22;5038365;27;100790;-50
2023/12/21 04:17:38;;;;;;;1.60;1.50;;;;;;;8.63;70.05;99472.69;5038546;27;97132;-51
2023/12/21 04:20:05;;;;;;;0.90;0.90;;;;;;;8.64;70.10;99454.91;5037553;27;96828;-51
2023/12/21 04:22:30;;;;;;;1.00;0.90;;;;;;;8.63;70.22;99439.63;5037709;27;96753;-51
2023/12/21 04:24:55;;;;;;;0.90;0.80;;;;;;;8.61;70.22;99440.16;5038151;27;97465;-51
2023/12/21 04:27:21;;;;;;;1.23;0.70;;;;;;;8.59;70.17;99437.19;5039088;27;108536;-51
2023/12/21 04:29:46;;;;;;;0.60;0.50;;;;;;;8.59;70.34;99430.94;5038326;27;97367;-51
2023/12/21 04:32:11;;;;;;;0.60;0.53;;;;;;;8.61;70.37;99417.34;5039285;27;97039;-51
2023/12/21 04:34:37;;;;;;;1.27;0.70;;;;;;;8.62;70.18;99429.88;5040669;27;97169;-51
2023/12/21 04:37:02;;;;;;;0.70;0.60;;;;;;;8.61;70.08;99431.88;5039194;27;108055;-51
2023/12/21 04:39:27;;;;;;;4.10;0.50;;;;;;;8.60;70.17;99426.91;5039546;27;97011;-50
2023/12/21 04:41:53;;;;;;;0.93;0.90;;;;;;;8.63;70.41;99420.31;5042315;27;97942;-50
2023/12/21 04:44:18;;;;;;;2.00;0.67;;;;;;;8.64;70.26;99435.59;5040131;27;106530;-51
2023/12/21 04:46:47;;;;;;;0.60;0.60;;;;;;;8.64;70.13;99430.09;5039737;27;107338;-50
2023/12/21 04:49:13;;;;;;;0.80;0.60;;;;;;;8.63;70.13;99420.31;5037973;27;97430;-51
2023/12/21 04:51:39;;;;;;;2.13;0.80;;;;;;;8.64;70.26;99421.81;5035926;27;97173;-51
2023/12/21 04:54:04;;;;;;;0.80;0.80;;;;;;;8.64;70.12;99413.53;5039956;27;97432;-50
2023/12/21 04:56:31;;;;;;;1.43;0.80;;;;;;;8.64;70.11;99417.03;5039372;27;98451;-50
2023/12/21 04:58:56;;;;;;;0.80;0.80;;;;;;;8.64;70.16;99403.25;5041420;27;97083;-50
2023/12/21 05:01:22;;;;;;;1.10;1.00;;;;;;;8.65;70.26;99398.47;5038709;27;97695;-50
2023/12/21 05:03:47;;;;;;;0.80;0.80;;;;;;;8.64;70.12;99400.50;5041408;27;97422;-50
2023/12/21 05:06:12;;;;;;;3.00;0.80;;;;;;;8.64;70.36;99389.47;5038071;27;98321;-51
2023/12/21 05:08:38;;;;;;;0.70;0.70;;;;;;;8.64;70.31;99380.47;5036488;27;97282;-50
2023/12/21 05:11:03;;;;;;;1.83;1.00;;;;;;;8.63;70.37;99368.69;5037853;27;97160;-50
2023/12/21 05:13:28;;;;;;;0.80;0.80;;;;;;;8.65;70.22;99362.63;5038097;27;97854;-51
2023/12/21 05:15:54;;;;;;;1.27;0.73;;;;;;;8.65;70.41;99355.09;5034314;27;97190;-50
2023/12/21 05:18:19;;;;;;;0.70;0.70;;;;;;;8.67;70.42;99349.78;5037957;27;97026;-50
2023/12/21 05:20:44;;;;;;;0.70;0.53;;;;;;;8.66;70.20;99347.59;5038797;27;97357;-51
2023/12/21 05:23:10;;;;;;;0.67;0.67;;;;;;;8.64;70.35;99333.59;5035412;27;101827;-51
2023/12/21 05:25:35;;;;;;;1.00;0.50;;;;;;;8.64;70.50;99339.09;5037819;27;106378;-51
2023/12/21 05:28:00;;;;;;;0.70;0.60;;;;;;;8.64;70.49;99334.34;5038108;27;97085;-51
2023/12/21 05:30:26;;;;;;;0.50;0.47;;;;;;;8.64;70.27;99334.34;5038609;27;103183;-50
2023/12/21 05:32:51;;;;;;;0.70;0.47;;;;;;;8.67;70.35;99324.22;5038694;27;97165;-50
2023/12/21 05:35:16;;;;;;;0.60;0.50;;;;;;;8.68;70.42;99307.19;5038829;27;97700;-51
2023/12/21 05:37:42;;;;;;;0.60;0.50;;;;;;;8.66;70.40;99312.50;5039718;27;97011;-50
2023/12/21 05:40:08;;;;;;;0.63;0.63;;;;;;;8.69;70.33;99296.91;5038887;27;96945;-51
2023/12/21 05:42:33;;;;;;;0.60;0.50;;;;;;;8.67;70.44;99299.44;5038878;27;97305;-50
2023/12/21 05:44:59;;;;;;;1.17;0.60;;;;;;;8.66;70.28;99286.94;5040543;27;97001;-50
2023/12/21 05:47:24;;;;;;;0.70;0.67;;;;;;;8.65;70.35;99268.91;5037532;27;103120;-51
2023/12/21 05:49:49;;;;;;;1.57;0.67;;;;;;;8.65;70.33;99275.16;5040164;27;96800;-50
2023/12/21 05:52:15;;;;;;;0.70;0.63;;;;;;;8.66;70.56;99270.38;5039419;27;97407;-50
2023/12/21 05:54:40;;;;;;;0.60;0.60;;;;;;;8.67;70.42;99267.09;5041032;27;97034;-50
2023/12/21 05:57:06;;;;;;;0.57;0.50;;;;;;;8.68;70.31;99262.31;5038435;27;98347;-51
2023/12/21 05:59:31;;;;;;;0.70;0.70;;;;;;;8.68;70.51;99254.06;5040253;27;96987;-50
2023/12/21 06:01:56;;;;;;;0.70;0.67;;;;;;;8.66;70.42;99238.06;5039303;27;97283;-50
2023/12/21 06:04:22;;;;;;;0.70;0.60;;;;;;;8.66;70.41;99231.78;5039261;27;97115;-50
2023/12/21 06:06:48;;;;;;;0.60;0.53;;;;;;;8.65;70.68;99225.53;5039681;27;96792;-50
2023/12/21 06:09:13;;;;;;;0.60;0.60;;;;;;;8.69;70.39;99214.19;5038375;27;96868;-51
2023/12/21 06:11:39;;;;;;;0.60;0.50;;;;;;;8.68;70.49;99207.94;5038607;27;98018;-50
2023/12/21 06:14:05;;;;;;;0.70;0.53;;;;;;;8.70;70.42;99199.13;5039045;27;96643;-50
2023/12/21 06:16:31;;;;;;;0.60;0.60;;;;;;;8.72;70.43;99197.31;5040726;27;98375;-49
2023/12/21 06:18:56;;;;;;;1.17;0.60;;;;;;;8.71;70.33;99181.31;5039053;27;97081;-50
2023/12/21 06:21:23;;;;;;;3.00;0.53;;;;;;;8.68;70.72;99171.34;5039847;27;97786;-50
2023/12/21 06:23:49;;;;;;;0.53;0.40;;;;;;;8.67;70.40;99169.84;5037675;27;98780;-50
2023/12/21 06:26:14;;;;;;;0.60;0.60;;;;;;;8.70;70.71;99160.50;5038549;27;97002;-50
2023/12/21 06:28:40;;;;;;;0.70;0.70;;;;;;;8.71;70.46;99154.44;5039752;27;97407;-50
2023/12/21 06:31:06;;;;;;;0.70;0.60;;;;;;;8.73;70.43;99145.66;5038073;27;98054;-50
2023/12/21 06:33:31;;;;;;;6.30;0.93;;;;;;;8.71;70.52;99135.16;5038103;27;97218;-51
2023/12/21 06:35:56;;;;;;;1.77;0.67;;;;;;;8.68;70.55;99136.25;5042580;27;96715;-51
2023/12/21 06:38:22;;;;;;;1.33;0.70;;;;;;;8.64;70.59;99132.34;5041479;27;101891;-51
2023/12/21 06:40:47;;;;;;;1.40;0.47;;;;;;;8.66;70.83;99121.53;5042841;27;97694;-50
2023/12/21 06:43:12;;;;;;;0.70;0.60;;;;;;;8.66;70.79;99102.97;5040838;27;97341;-51
2023/12/21 06:45:38;;;;;;;0.53;0.50;;;;;;;8.66;70.65;99093.97;5042170;27;96737;-50
2023/12/21 06:48:04;;;;;;;0.50;0.40;;;;;;;8.65;70.69;99081.44;5041050;27;97158;-50
2023/12/21 06:50:29;;;;;;;0.50;0.40;;;;;;;8.66;70.64;99060.88;5039253;27;97788;-50
2023/12/21 06:52:54;;;;;;;0.60;0.50;;;;;;;8.63;70.53;99065.44;5039274;27;97811;-50
2023/12/21 06:55:21;;;;;;;0.60;0.60;;;;;;;8.63;70.76;99035.13;5041545;27;97154;-51
2023/12/21 06:57:46;;;;;;;0.50;0.37;;;;;;;8.62;70.89;99044.69;5040938;27;96664;-50
2023/12/21 07:00:12;;;;;;;0.50;0.37;;;;;;;8.61;70.61;99039.72;5039939;27;97478;-50
2023/12/21 07:02:37;;;;;;;0.50;0.37;;;;;;;8.61;70.62;99025.91;5042480;27;97101;-51
2023/12/21 07:05:03;;;;;;;0.83;0.40;;;;;;;8.56;70.85;99007.53;5042714;27;96622;-50
2023/12/21 07:07:28;;;;;;;0.50;0.40;;;;;;;8.56;70.96;99004.78;5040998;27;97346;-50
2023/12/21 07:09:53;;;;;;;1.73;0.43;;;;;;;8.53;70.75;98999.03;5040680;27;97855;-51
2023/12/21 07:12:20;;;;;;;0.50;0.30;;;;;;;8.52;70.94;98986.56;5041954;27;97137;-50
2023/12/21 07:14:46;;;;;;;1.43;0.60;;;;;;;8.52;71.01;98985.81;5040521;27;97074;-50
2023/12/21 07:17:12;;;;;;;0.50;0.30;;;;;;;8.52;70.91;98972.03;5040526;27;96929;-50
2023/12/21 07:19:37;;;;;;;0.40;0.30;;;;;;;8.51;71.09;98956.78;5040422;27;98009;-50
2023/12/21 07:22:04;;;;;;;0.80;0.40;;;;;;;8.49;71.10;98946.28;5043178;27;97355;-50
2023/12/21 07:24:30;;;;;;;2.30;0.30;;;;;;;8.50;71.09;98934.00;5040471;27;97263;-49
2023/12/21 07:26:55;;;;;;;0.50;0.40;;;;;;;8.47;70.91;98918.53;5041710;27;96838;-50
2023/12/21 07:29:20;;;;;;;0.60;0.40;;;;;;;8.47;71.13;98910.28;5041368;27;108963;-50
2023/12/21 07:31:46;;;;;;;0.60;0.40;;;;;;;8.52;70.93;98898.38;5041513;27;108910;-50
2023/12/21 07:34:11;;;;;;;6.80;0.50;;;;;;;8.55;70.80;98880.00;5039410;27;97151;-50
2023/12/21 07:36:37;;;;;;;0.50;0.30;;;;;;;8.53;70.86;98875.03;5042197;27;97191;-51
2023/12/21 07:39:04;;;;;;;0.50;0.40;;;;;;;8.50;71.13;98867.13;5042001;27;109550;-50
2023/12/21 07:41:30;;;;;;;0.50;0.40;;;;;;;8.48;70.98;98875.19;5041379;27;98588;-50
2023/12/21 07:43:55;;;;;;;0.60;0.40;;;;;;;8.46;70.99;98861.97;5042382;27;97122;-50
2023/12/21 07:46:21;;;;;;;0.50;0.40;;;;;;;8.43;71.27;98857.53;5041970;27;96958;-50
2023/12/21 07:48:46;;;;;;;0.93;0.40;;;;;;;8.44;71.05;98852.78;5041493;27;98439;-50
2023/12/21 07:51:12;;;;;;;0.50;0.40;;;;;;;8.44;71.11;98845.25;5041236;27;97067;-50
2023/12/21 07:53:37;;;;;;;0.50;0.40;;;;;;;8.44;71.23;98836.97;5040355;27;97126;-50
2023/12/21 07:56:03;;;;;;;0.50;0.40;;;;;;;8.49;71.13;98833.31;5041833;27;97274;-50
2023/12/21 07:58:28;;;;;;;0.50;0.30;;;;;;;8.50;71.00;98823.78;5040270;27;97066;-50
2023/12/21 08:00:53;;;;;;;1.70;0.30;;;;;;;8.50;70.97;98801.72;5041209;27;107320;-50
2023/12/21 08:03:19;;;;;;;0.50;0.30;;;;;;;8.47;70.95;98833.13;5040471;27;98518;-51
2023/12/21 08:05:45;;;;;;;0.50;0.30;;;;;;;8.50;71.02;98809.25;5041656;27;96961;-50
2023/12/21 08:08:10;;;;;;;1.90;0.40;;;;;;;8.49;71.25;98808.50;5041178;27;96943;-50
2023/12/21 08:10:35;;;;;;;0.50;0.40;;;;;;;8.51;71.10;98816.25;5042119;27;97049;-50
2023/12/21 08:13:00;;;;;;;0.60;0.40;;;;;;;8.52;71.05;98806.69;5041921;27;96854;-50
2023/12/21 08:15:26;;;;;;;0.60;0.37;;;;;;;8.53;71.15;98805.41;5040776;27;97197;-50
2023/12/21 08:17:55;;;;;;;0.50;0.30;;;;;;;8.52;71.08;98798.41;5039982;27;97330;-51
2023/12/21 08:20:22;;;;;;;0.60;0.30;;;;;;;8.53;71.21;98788.88;5038977;27;97244;-51
2023/12/21 08:22:47;;;;;;;0.60;0.40;;;;;;;8.54;71.09;98795.84;5041505;27;97067;-51
2023/12/21 08:25:12;;;;;;;0.50;0.30;;;;;;;8.53;71.17;98803.38;5039434;27;97414;-50
2023/12/21 08:27:41;;;;;;;0.50;0.33;;;;;;;8.53;71.37;98802.66;5041688;27;98012;-51
2023/12/21 08:30:07;;;;;;;0.50;0.33;;;;;;;8.57;71.12;98800.28;5041403;27;97190;-51
2023/12/21 08:32:32;;;;;;;1.17;0.30;;;;;;;8.57;71.16;98791.25;5040875;27;99210;-50
2023/12/21 08:34:58;;;;;;;0.50;0.37;;;;;;;8.58;71.13;98785.19;5041024;27;97289;-50
2023/12/21 08:37:23;;;;;;;4.20;0.40;;;;;;;8.60;71.10;98790.19;5041043;27;98554;-51
2023/12/21 08:39:49;;;;;;;0.73;0.40;;;;;;;8.60;71.15;98779.88;5040264;27;101649;-52
2023/12/21 08:42:14;;;;;;;0.60;0.40;;;;;;;8.63;71.13;98775.28;5041180;27;96934;-50
2023/12/21 08:44:40;;;;;;;0.50;0.30;;;;;;;8.63;71.23;98765.00;5039839;27;98125;-50
2023/12/21 08:47:05;;;;;;;1.00;0.30;;;;;;;8.63;71.02;98747.72;5041312;27;97834;-50
2023/12/21 08:49:31;;;;;;;0.50;0.30;;;;;;;8.63;71.23;98772.53;5040276;27;97923;-50
2023/12/21 08:51:57;;;;;;;0.80;0.33;;;;;;;8.64;71.38;98757.47;5040442;27;97249;-50
2023/12/21 08:54:22;;;;;;;0.50;0.30;;;;;;;8.66;71.16;98752.16;5039326;27;97097;-51
2023/12/21 08:56:50;;;;;;;0.50;0.30;;;;;;;8.64;71.16;98741.69;5039582;27;97397;-49
2023/12/21 08:59:16;;;;;;;0.50;0.30;;;;;;;8.70;71.04;98738.75;5036933;27;98377;-50
2023/12/21 09:01:41;;;;;;;0.50;0.30;;;;;;;8.69;71.07;98740.03;5040523;27;97063;-50
2023/12/21 09:04:06;;;;;;;1.17;0.67;;;;;;;8.67;71.24;98737.06;5039499;27;99027;-51
2023/12/21 09:06:32;;;;;;;0.50;0.30;;;;;;;8.70;71.30;98733.97;5037894;27;97008;-50
2023/12/21 09:08:58;;;;;;;0.50;0.40;;;;;;;8.73;71.26;98737.66;5040666;27;97164;-50
2023/12/21 09:11:24;;;;;;;0.50;0.40;;;;;;;8.73;71.03;98723.88;5040373;27;97411;-51
2023/12/21 09:13:49;;;;;;;0.60;0.50;;;;;;;8.75;71.12;98710.28;5039487;27;97231;-50
2023/12/21 09:16:17;;;;;;;0.50;0.30;;;;;;;8.76;71.28;98708.97;5039727;27;97407;-50
2023/12/21 09:18:43;;;;;;;0.50;0.30;;;;;;;8.77;71.10;98697.41;5039658;27;97166;-50
2023/12/21 09:21:09;;;;;;;0.60;0.30;;;;;;;8.79;71.15;98691.34;5037664;27;97197;-51
2023/12/21 09:23:34;;;;;;;0.50;0.30;;;;;;;8.81;71.22;98686.75;5039979;27;97301;-50
2023/12/21 09:25:59;;;;;;;0.50;0.40;;;;;;;8.83;71.13;98681.41;5038864;27;107459;-50
2023/12/21 09:28:25;;;;;;;0.50;0.40;;;;;;;8.82;71.06;98693.72;5040798;27;97839;-50
2023/12/21 09:30:50;;;;;;;1.03;0.30;;;;;;;8.81;71.17;98663.94;5039450;27;96754;-50
2023/12/21 09:33:18;;;;;;;0.50;0.47;;;;;;;8.87;71.03;98670.00;5038058;27;98382;-50
2023/12/21 09:35:43;;;;;;;1.00;0.40;;;;;;;8.91;70.85;98662.09;5038159;27;100274;-51
2023/12/21 09:38:09;;;;;;;0.70;0.47;;;;;;;8.92;71.14;98658.78;5040521;27;97002;-50
2023/12/21 09:40:36;;;;;;;0.60;0.40;;;;;;;8.94;71.04;98656.22;5037624;27;97030;-50
2023/12/21 09:43:05;;;;;;;1.17;0.30;;;;;;;8.96;71.11;98641.88;5039921;27;97046;-50
2023/12/21 09:45:32;;;;;;;2.00;0.30;;;;;;;8.97;70.94;98638.56;5035540;27;97740;-51
2023/12/21 09:47:58;;;;;;;0.50;0.30;;;;;;;8.99;71.09;98616.66;5038704;27;97357;-50
2023/12/21 09:50:25;;;;;;;0.73;0.40;;;;;;;8.99;70.85;98613.19;5038493;27;97054;-50
2023/12/21 09:52:51;;;;;;;0.70;0.40;;;;;;;8.99;71.14;98602.16;5037127;27;97149;-50
2023/12/21 09:55:18;;;;;;;0.70;0.40;;;;;;;8.98;71.13;98590.41;5040782;27;97169;-50
2023/12/21 09:57:44;;;;;;;1.57;0.40;;;;;;;8.99;71.15;98580.81;5039550;27;96870;-50
2023/12/21 10:00:10;;;;;;;0.70;0.40;;;;;;;8.99;71.04;98578.06;5039046;27;97226;-50
2023/12/21 10:02:35;;;;;;;1.17;0.40;;;;;;;9.00;70.96;98570.53;5038101;27;96956;-50
2023/12/21 10:05:03;;;;;;;0.80;0.40;;;;;;;9.00;71.13;98565.00;5037966;27;96550;-50
2023/12/21 10:07:29;;;;;;;1.97;0.47;;;;;;;8.99;71.10;98558.75;5037985;27;96961;-50
2023/12/21 10:09:54;;;;;;;0.50;0.30;;;;;;;9.02;70.89;98546.63;5036962;27;97104;-50
2023/12/21 10:12:19;;;;;;;0.53;0.33;;;;;;;9.01;71.15;98533.41;5039024;27;97511;-50
2023/12/21 10:14:56;;;;;;;1.37;0.40;;;;;;;9.01;71.09;98533.41;5035962;27;97083;-50
2023/12/21 10:17:21;;;;;;;1.20;0.47;;;;;;;9.04;71.07;98538.53;5040105;27;97290;-50
2023/12/21 10:19:47;;;;;;;1.53;0.40;;;;;;;9.04;70.93;98502.66;5038579;27;97051;-50
2023/12/21 10:22:12;;;;;;;1.13;0.40;;;;;;;9.06;70.95;98507.63;5039915;27;96770;-50
2023/12/21 10:24:37;;;;;;;1.00;0.30;;;;;;;9.07;71.14;98503.59;5038054;27;109296;-50
2023/12/21 10:27:05;;;;;;;0.93;0.30;;;;;;;9.06;71.06;98485.56;5038433;27;96904;-50
2023/12/21 10:29:32;;;;;;;1.00;0.47;;;;;;;9.06;71.15;98480.78;5037102;27;96689;-50
2023/12/21 10:31:57;;;;;;;0.60;0.40;;;;;;;9.08;70.98;98486.47;5038268;27;97095;-50
2023/12/21 10:34:22;;;;;;;0.60;0.50;;;;;;;9.08;71.28;98477.47;5039853;27;96985;-50
2023/12/21 10:36:48;;;;;;;0.50;0.30;;;;;;;9.06;71.20;98469.75;5037959;27;96903;-50
2023/12/21 10:39:14;;;;;;;2.43;0.40;;;;;;;9.06;71.34;98458.72;5038492;27;97212;-50
2023/12/21 10:41:43;;;;;;;0.87;0.40;;;;;;;9.09;71.37;98454.84;5037600;27;97397;-50
2023/12/21 10:44:10;;;;;;;0.60;0.30;;;;;;;9.10;71.14;98430.78;5038910;27;97622;-50
2023/12/21 10:46:38;;;;;;;0.60;0.30;;;;;;;9.12;71.17;98441.97;5037909;27;97033;-50
2023/12/21 10:49:05;;;;;;;0.50;0.30;;;;;;;9.10;71.22;98425.25;5038328;27;97138;-50
2023/12/21 10:51:32;;;;;;;0.50;0.30;;;;;;;9.11;71.11;98407.41;5039724;27;97104;-50
2023/12/21 10:54:00;;;;;;;4.30;0.30;;;;;;;9.12;71.50;98425.41;5037114;27;97615;-50
2023/12/21 10:56:25;;;;;;;0.50;0.30;;;;;;;9.11;71.44;98401.88;5036834;27;97039;-50
2023/12/21 10:58:52;;;;;;;1.77;0.30;;;;;;;9.11;71.46;98391.59;5038897;27;97064;-50
2023/12/21 11:01:19;;;;;;;0.50;0.30;;;;;;;9.13;71.27;98379.97;5039483;27;97124;-50
2023/12/21 11:03:47;;;;;;;0.60;0.47;;;;;;;9.14;71.51;98386.97;5035873;27;96929;-50
2023/12/21 11:06:15;;;;;;;0.50;0.37;;;;;;;9.17;71.32;98377.56;5038275;27;97803;-50
2023/12/21 11:08:43;;;;;;;0.73;0.40;;;;;;;9.17;71.39;98366.53;5036225;27;97191;-50
2023/12/21 11:11:08;;;;;;;1.13;0.40;;;;;;;9.16;71.35;98367.84;5037286;27;97269;-50
2023/12/21 11:13:34;;;;;;;0.70;0.43;;;;;;;9.19;71.33;98367.44;5038699;27;97300;-50
2023/12/21 11:16:00;;;;;;;0.80;0.40;;;;;;;9.21;71.36;98353.09;5038185;27;98374;-50
2023/12/21 11:18:26;;;;;;;1.73;0.40;;;;;;;9.24;71.33;98341.66;5039057;27;96759;-50
2023/12/21 11:20:57;;;;;;;0.60;0.40;;;;;;;9.24;71.13;98340.94;5036181;27;97080;-50
2023/12/21 11:23:22;;;;;;;0.67;0.40;;;;;;;9.25;71.35;98343.09;5041393;27;98529;-50
2023/12/21 11:25:55;;;;;;;0.60;0.40;;;;;;;9.29;71.29;98337.22;5041250;27;97137;-50
2023/12/21 11:28:30;;;;;;;0.50;0.30;;;;;;;9.30;71.23;98331.13;5043167;27;97069;-50
2023/12/21 11:30:56;;;;;;;0.50;0.30;;;;;;;9.30;71.37;98322.84;5039544;27;97000;-50
2023/12/21 11:33:30;;;;;;;0.50;0.30;;;;;;;9.33;71.22;98315.47;5040906;27;97461;-50